A- A+ FrançaisEnglishEspañol中国

最近的 MRLC Los ChilesMHTG ToncontínLFNA Gap-Tallard LOWZ Zell am SeeLFBT Tarbes-Lourdes-PyrénéesLFLZ Feurs-Chambeon

飞行员的航空天气,使用METAR(气象机场报告)进行的飞行准备和TAF(终端机场预报:针对以下情况的短期天气预报)航空)。 以及其他资源,例如VAC(目视进近图)和NOTAM(通知飞行员)以进行预试飞行.

METAR, TAF, VAC, NOTAM Frederick Mun机场 (美国) / OACI KFDK/ IATA FDK

它位于附近 Frederick, Olacin 在 1.7 km, Spring Ridge 在 2.6 km, Bartonsville 在 3.1 km, Frederick 在 3.1 km, Clover Hill 在 6.4 km, Ballenger Creek 在 7.2 km, Walkersville 在 7.9 km, High Barbaree 在 9.4 km, Urbana 在 10 km, Buckeystown 在 10 km,

机场的高度为 Frederick Mun机场的

92 m = 302 ft

附近的机场Frederick Mun机场的

跑道 Frederick Mun机场的

目前的天气 Frederick Mun机场的 - KFDK

ciel dégagé
21°C

Vent 0 km/h

可提供5天天气预报 Olacin 在 1.7 km, Spring Ridge 在 2.6 km, Bartonsville 在 3.1 km, Frederick 在 3.1 km, Clover Hill 在 6.4 km, Ballenger Creek 在 7.2 km, Walkersville 在 7.9 km, High Barbaree 在 9.4 km, Urbana 在 10 km, Buckeystown 在 10 km,

METAR Frederick Mun机场的 - KFDK

KFDK 091047Z 00000KT 5SM HZ SKC 21/21 A2999

Frederick Mun机场METAR解码 (美国)

KFDK机场发行的METAR日期2020年07月09日至10:47 GMT, 已于 12 分钟.

可见度为8 km = 5 sm.

温度为21°C = 70 °F 露点为21°C = 70 °F 。 这相当于100%的相对湿度。.

QNH是1016 hPa = 30 inHg

的风0 kt = 0 km/h, 风向为0°.

天空晴朗

TAF Frederick Mun机场的 - KFDK

没有TAF

Frederick Mun机场的NOTAM

提供的NOTAM不能保证其时事性。 在将其用于飞行准备或在飞行期间使用之前,飞行员是唯一负责验证其有效性的人员。

没有通知

数据源